ěÝzenÝ letovÚho provozu ╚eskÚ republiky
Letiste: LKMT Aktualizace: 21.09.2021 06:00:30  UTC
 METAR LKMT 21.09. 06:00 ...
METAR LKMT 210600Z 24002KT 8000 4000NW VCFG FEW002 05/05 Q1026 NOSIG RMK REG QNH 1024=
 TAF LKMT 21.09. 05:00 ...
TAF LKMT 210500Z 2106/2212 22004KT 9999 SCT030      BECMG 2110/2112 01006KT      BECMG 2123/2201 23004KT 6000 -RA OVC011      TEMPO 2201/2209 4000 RA BR OVC007      PROB30 TEMPO 2201/2209 2000 RA BR OVC003      BECMG 2207/2209 VRB02KT=